Aviation Digital Data Service (ADDS)

Output produced by TAFs form (1328 UTC 22 December 2014)
found at http://aviationweather.gov/adds/tafs/
 
KAMA 221124Z 2212/2312 31015KT P6SM BKN100 
     FM221500 34021G30KT P6SM BKN070 
     FM230000 03012KT P6SM VCSH SCT020 OVC035 
     FM230900 36014KT P6SM BKN050